aviador You're here:

KGPH Decoded Metar

in
Report Time2018-06-21 12:15:00
UTC Time2018-06-21 12:33:31
Flight Rules vfr VFR
Wind270° at 06 kt
W.Decomp.*RWY 18: 6.0 kt RCW
W.Rank270° ranks 25
Current wind is below 270° avg. (6.8)
Visibility9999 m
Phenomena:N/A
Clouds:N/A
Expected CloudBase > 800 ft AGL from Temp-Dew spread
CeilingNone
Temp17°C
Dew Point15°C (88% RH)
AAT16.5°C
QNH1009 hPa
Raw Report
KGPH 211215Z AUTO 27006KT 10SM CLR 17/15 A2980 RMK AO2=

Extra information for KGPH:More info

Social comments